sensor_id;sensor_type;location;lat;lon;timestamp;P1;durP1;ratioP1;P2;durP2;ratioP2
11187;SDS011;5650;52.700;7.306;2022-08-20T00:00:25;17.60;;;11.95;;
11187;SDS011;5650;52.700;7.306;2022-08-20T00:02:54;15.05;;;12.48;;
11187;SDS011;5650;52.700;7.306;2022-08-20T00:05:23;12.68;;;11.30;;
11187;SDS011;5650;52.700;7.306;2022-08-20T00:07:54;13.18;;;11.73;;
11187;SDS011;5650;52.700;7.306;2022-08-20T00:10:23;12.50;;;11.20;;
11187;SDS011;5650;52.700;7.306;2022-08-20T00:12:52;13.18;;;11.52;;
11187;SDS011;5650;52.700;7.306;2022-08-20T00:15:21;12.07;;;10.77;;
11187;SDS011;5650;52.700;7.306;2022-08-20T00:17:50;13.82;;;11.48;;
11187;SDS011;5650;52.700;7.306;2022-08-20T00:20:19;12.88;;;11.45;;
11187;SDS011;5650;52.700;7.306;2022-08-20T00:22:48;14.35;;;11.55;;
11187;SDS011;5650;52.700;7.306;2022-08-20T00:25:18;13.20;;;10.57;;
11187;SDS011;5650;52.700;7.306;2022-08-20T00:27:45;12.43;;;10.48;;
11187;SDS011;5650;52.700;7.306;2022-08-20T00:30:14;12.43;;;10.98;;
11187;SDS011;5650;52.700;7.306;2022-08-20T00:32:50;12.25;;;10.98;;
11187;SDS011;5650;52.700;7.306;2022-08-20T00:35:23;11.88;;;10.35;;
11187;SDS011;5650;52.700;7.306;2022-08-20T00:37:52;13.48;;;10.25;;
11187;SDS011;5650;52.700;7.306;2022-08-20T00:40:20;14.32;;;10.55;;
11187;SDS011;5650;52.700;7.306;2022-08-20T00:42:51;11.25;;;10.15;;
11187;SDS011;5650;52.700;7.306;2022-08-20T00:45:29;13.82;;;10.48;;
11187;SDS011;5650;52.700;7.306;2022-08-20T00:47:57;11.13;;;9.98;;
11187;SDS011;5650;52.700;7.306;2022-08-20T00:50:31;12.85;;;10.68;;
11187;SDS011;5650;52.700;7.306;2022-08-20T00:53:02;10.75;;;9.75;;
11187;SDS011;5650;52.700;7.306;2022-08-20T00:55:34;10.73;;;9.43;;
11187;SDS011;5650;52.700;7.306;2022-08-20T00:58:04;10.55;;;9.48;;
11187;SDS011;5650;52.700;7.306;2022-08-20T01:00:40;13.18;;;9.70;;
11187;SDS011;5650;52.700;7.306;2022-08-20T01:03:11;13.13;;;9.80;;
11187;SDS011;5650;52.700;7.306;2022-08-20T01:05:44;9.35;;;8.52;;
11187;SDS011;5650;52.700;7.306;2022-08-20T01:08:13;10.07;;;9.10;;
11187;SDS011;5650;52.700;7.306;2022-08-20T01:10:45;11.57;;;9.77;;
11187;SDS011;5650;52.700;7.306;2022-08-20T01:13:19;9.82;;;8.93;;
11187;SDS011;5650;52.700;7.306;2022-08-20T01:15:50;10.60;;;9.48;;
11187;SDS011;5650;52.700;7.306;2022-08-20T01:18:24;12.43;;;11.13;;
11187;SDS011;5650;52.700;7.306;2022-08-20T01:20:54;12.77;;;11.32;;
11187;SDS011;5650;52.700;7.306;2022-08-20T01:23:26;13.10;;;11.75;;
11187;SDS011;5650;52.700;7.306;2022-08-20T01:26:07;13.27;;;11.93;;
11187;SDS011;5650;52.700;7.306;2022-08-20T01:28:40;12.57;;;10.93;;
11187;SDS011;5650;52.700;7.306;2022-08-20T01:31:10;15.57;;;12.43;;
11187;SDS011;5650;52.700;7.306;2022-08-20T01:33:38;18.15;;;13.20;;
11187;SDS011;5650;52.700;7.306;2022-08-20T01:36:06;14.18;;;11.75;;
11187;SDS011;5650;52.700;7.306;2022-08-20T01:38:37;14.65;;;13.05;;
11187;SDS011;5650;52.700;7.306;2022-08-20T01:44:22;14.82;;;12.77;;
11187;SDS011;5650;52.700;7.306;2022-08-20T01:46:53;14.40;;;12.10;;
11187;SDS011;5650;52.700;7.306;2022-08-20T01:49:22;14.30;;;12.77;;
11187;SDS011;5650;52.700;7.306;2022-08-20T01:51:52;13.75;;;11.85;;
11187;SDS011;5650;52.700;7.306;2022-08-20T01:54:25;13.68;;;12.25;;
11187;SDS011;5650;52.700;7.306;2022-08-20T01:56:59;14.15;;;12.40;;
11187;SDS011;5650;52.700;7.306;2022-08-20T01:59:30;13.52;;;12.27;;
11187;SDS011;5650;52.700;7.306;2022-08-20T02:01:58;12.98;;;11.68;;
11187;SDS011;5650;52.700;7.306;2022-08-20T02:04:29;17.13;;;13.23;;
11187;SDS011;5650;52.700;7.306;2022-08-20T02:07:00;15.32;;;12.85;;
11187;SDS011;5650;52.700;7.306;2022-08-20T02:09:30;16.50;;;12.43;;
11187;SDS011;5650;52.700;7.306;2022-08-20T02:12:00;16.95;;;14.27;;
11187;SDS011;5650;52.700;7.306;2022-08-20T02:14:28;18.13;;;14.02;;
11187;SDS011;5650;52.700;7.306;2022-08-20T02:16:56;16.77;;;13.82;;
11187;SDS011;5650;52.700;7.306;2022-08-20T02:19:30;18.95;;;15.25;;
11187;SDS011;5650;52.700;7.306;2022-08-20T02:22:03;15.27;;;13.13;;
11187;SDS011;5650;52.700;7.306;2022-08-20T02:24:41;17.23;;;14.82;;
11187;SDS011;5650;52.700;7.306;2022-08-20T02:27:10;20.23;;;14.55;;
11187;SDS011;5650;52.700;7.306;2022-08-20T02:29:37;15.63;;;13.35;;
11187;SDS011;5650;52.700;7.306;2022-08-20T02:32:06;17.13;;;15.20;;
11187;SDS011;5650;52.700;7.306;2022-08-20T02:34:34;21.40;;;15.07;;
11187;SDS011;5650;52.700;7.306;2022-08-20T02:37:05;16.75;;;14.13;;
11187;SDS011;5650;52.700;7.306;2022-08-20T02:39:33;19.45;;;15.18;;
11187;SDS011;5650;52.700;7.306;2022-08-20T02:42:04;18.75;;;15.07;;
11187;SDS011;5650;52.700;7.306;2022-08-20T02:44:34;19.30;;;15.90;;
11187;SDS011;5650;52.700;7.306;2022-08-20T02:47:02;16.15;;;14.20;;
11187;SDS011;5650;52.700;7.306;2022-08-20T02:49:29;21.67;;;15.35;;
11187;SDS011;5650;52.700;7.306;2022-08-20T02:52:00;18.05;;;13.82;;
11187;SDS011;5650;52.700;7.306;2022-08-20T02:54:27;16.42;;;14.18;;
11187;SDS011;5650;52.700;7.306;2022-08-20T02:56:55;19.67;;;15.05;;
11187;SDS011;5650;52.700;7.306;2022-08-20T02:59:22;17.73;;;14.00;;
11187;SDS011;5650;52.700;7.306;2022-08-20T03:01:51;18.52;;;15.45;;
11187;SDS011;5650;52.700;7.306;2022-08-20T03:04:18;18.48;;;15.63;;
11187;SDS011;5650;52.700;7.306;2022-08-20T03:06:45;19.98;;;17.13;;
11187;SDS011;5650;52.700;7.306;2022-08-20T03:09:13;20.08;;;15.65;;
11187;SDS011;5650;52.700;7.306;2022-08-20T03:11:40;17.88;;;15.93;;
11187;SDS011;5650;52.700;7.306;2022-08-20T03:14:07;19.88;;;15.48;;
11187;SDS011;5650;52.700;7.306;2022-08-20T03:16:34;17.50;;;15.20;;
11187;SDS011;5650;52.700;7.306;2022-08-20T03:19:06;17.60;;;15.40;;
11187;SDS011;5650;52.700;7.306;2022-08-20T03:21:45;17.02;;;15.23;;
11187;SDS011;5650;52.700;7.306;2022-08-20T03:24:12;17.83;;;15.40;;
11187;SDS011;5650;52.700;7.306;2022-08-20T03:26:39;18.48;;;16.45;;
11187;SDS011;5650;52.700;7.306;2022-08-20T03:29:07;18.85;;;15.82;;
11187;SDS011;5650;52.700;7.306;2022-08-20T03:31:34;23.17;;;14.70;;
11187;SDS011;5650;52.700;7.306;2022-08-20T03:34:01;18.40;;;14.18;;
11187;SDS011;5650;52.700;7.306;2022-08-20T03:36:30;20.92;;;13.88;;
11187;SDS011;5650;52.700;7.306;2022-08-20T03:38:58;17.27;;;14.18;;
11187;SDS011;5650;52.700;7.306;2022-08-20T03:41:27;15.98;;;12.90;;
11187;SDS011;5650;52.700;7.306;2022-08-20T03:43:56;14.63;;;12.93;;
11187;SDS011;5650;52.700;7.306;2022-08-20T03:46:23;16.95;;;13.10;;
11187;SDS011;5650;52.700;7.306;2022-08-20T03:48:51;16.92;;;12.63;;
11187;SDS011;5650;52.700;7.306;2022-08-20T03:51:26;16.27;;;13.07;;
11187;SDS011;5650;52.700;7.306;2022-08-20T03:53:55;18.05;;;12.68;;
11187;SDS011;5650;52.700;7.306;2022-08-20T03:56:23;14.50;;;11.77;;
11187;SDS011;5650;52.700;7.306;2022-08-20T03:58:50;19.55;;;13.73;;
11187;SDS011;5650;52.700;7.306;2022-08-20T04:01:18;15.27;;;11.98;;
11187;SDS011;5650;52.700;7.306;2022-08-20T04:03:48;20.45;;;13.60;;
11187;SDS011;5650;52.700;7.306;2022-08-20T04:06:18;20.25;;;13.38;;
11187;SDS011;5650;52.700;7.306;2022-08-20T04:08:45;19.33;;;13.20;;
11187;SDS011;5650;52.700;7.306;2022-08-20T04:11:13;16.92;;;12.73;;
11187;SDS011;5650;52.700;7.306;2022-08-20T04:13:44;16.63;;;12.43;;
11187;SDS011;5650;52.700;7.306;2022-08-20T04:16:11;20.70;;;13.13;;
11187;SDS011;5650;52.700;7.306;2022-08-20T04:18:38;15.35;;;12.02;;
11187;SDS011;5650;52.700;7.306;2022-08-20T04:21:13;15.70;;;11.80;;
11187;SDS011;5650;52.700;7.306;2022-08-20T04:23:40;15.65;;;11.77;;
11187;SDS011;5650;52.700;7.306;2022-08-20T04:26:07;22.25;;;12.77;;
11187;SDS011;5650;52.700;7.306;2022-08-20T04:28:36;15.60;;;11.07;;
11187;SDS011;5650;52.700;7.306;2022-08-20T04:31:03;17.08;;;12.77;;
11187;SDS011;5650;52.700;7.306;2022-08-20T04:33:41;17.60;;;13.23;;
11187;SDS011;5650;52.700;7.306;2022-08-20T04:36:08;16.55;;;13.50;;
11187;SDS011;5650;52.700;7.306;2022-08-20T04:38:38;20.20;;;12.07;;
11187;SDS011;5650;52.700;7.306;2022-08-20T04:41:11;19.75;;;13.25;;
11187;SDS011;5650;52.700;7.306;2022-08-20T04:43:40;15.40;;;12.35;;
11187;SDS011;5650;52.700;7.306;2022-08-20T04:46:07;24.27;;;12.30;;
11187;SDS011;5650;52.700;7.306;2022-08-20T04:48:35;21.33;;;11.85;;
11187;SDS011;5650;52.700;7.306;2022-08-20T04:51:03;15.65;;;11.07;;
11187;SDS011;5650;52.700;7.306;2022-08-20T04:53:36;17.50;;;10.43;;
11187;SDS011;5650;52.700;7.306;2022-08-20T04:56:04;18.58;;;10.45;;
11187;SDS011;5650;52.700;7.306;2022-08-20T04:58:32;16.33;;;9.70;;
11187;SDS011;5650;52.700;7.306;2022-08-20T05:01:03;17.65;;;10.50;;
11187;SDS011;5650;52.700;7.306;2022-08-20T05:03:32;24.88;;;10.63;;
11187;SDS011;5650;52.700;7.306;2022-08-20T05:06:00;15.23;;;9.70;;
11187;SDS011;5650;52.700;7.306;2022-08-20T05:08:27;20.65;;;9.95;;
11187;SDS011;5650;52.700;7.306;2022-08-20T05:10:55;17.58;;;10.00;;
11187;SDS011;5650;52.700;7.306;2022-08-20T05:13:26;15.30;;;9.85;;
11187;SDS011;5650;52.700;7.306;2022-08-20T05:15:56;17.08;;;10.15;;
11187;SDS011;5650;52.700;7.306;2022-08-20T05:18:33;15.77;;;9.30;;
11187;SDS011;5650;52.700;7.306;2022-08-20T05:21:04;19.73;;;9.20;;
11187;SDS011;5650;52.700;7.306;2022-08-20T05:23:31;15.60;;;8.50;;
11187;SDS011;5650;52.700;7.306;2022-08-20T05:26:00;12.88;;;8.27;;
11187;SDS011;5650;52.700;7.306;2022-08-20T05:28:31;13.60;;;8.30;;
11187;SDS011;5650;52.700;7.306;2022-08-20T05:31:01;15.43;;;8.60;;
11187;SDS011;5650;52.700;7.306;2022-08-20T05:33:32;15.38;;;8.30;;
11187;SDS011;5650;52.700;7.306;2022-08-20T05:36:00;15.02;;;7.82;;
11187;SDS011;5650;52.700;7.306;2022-08-20T05:38:42;16.45;;;8.60;;
11187;SDS011;5650;52.700;7.306;2022-08-20T05:41:09;14.93;;;7.55;;
11187;SDS011;5650;52.700;7.306;2022-08-20T05:43:43;15.05;;;7.78;;
11187;SDS011;5650;52.700;7.306;2022-08-20T05:46:10;10.20;;;7.05;;
11187;SDS011;5650;52.700;7.306;2022-08-20T05:48:38;15.95;;;7.28;;
11187;SDS011;5650;52.700;7.306;2022-08-20T05:51:15;13.95;;;7.15;;
11187;SDS011;5650;52.700;7.306;2022-08-20T05:53:45;19.73;;;7.22;;
11187;SDS011;5650;52.700;7.306;2022-08-20T05:56:13;18.23;;;6.80;;
11187;SDS011;5650;52.700;7.306;2022-08-20T05:58:42;16.25;;;6.93;;
11187;SDS011;5650;52.700;7.306;2022-08-20T06:01:09;11.80;;;6.32;;
11187;SDS011;5650;52.700;7.306;2022-08-20T06:03:41;14.48;;;6.47;;
11187;SDS011;5650;52.700;7.306;2022-08-20T06:06:28;13.85;;;6.00;;
11187;SDS011;5650;52.700;7.306;2022-08-20T06:08:55;15.98;;;6.60;;
11187;SDS011;5650;52.700;7.306;2022-08-20T06:11:29;16.25;;;6.00;;
11187;SDS011;5650;52.700;7.306;2022-08-20T06:13:58;15.07;;;6.30;;
11187;SDS011;5650;52.700;7.306;2022-08-20T06:16:25;10.35;;;6.35;;
11187;SDS011;5650;52.700;7.306;2022-08-20T06:19:00;11.18;;;5.72;;
11187;SDS011;5650;52.700;7.306;2022-08-20T06:21:27;15.27;;;5.90;;
11187;SDS011;5650;52.700;7.306;2022-08-20T06:23:58;11.50;;;5.30;;
11187;SDS011;5650;52.700;7.306;2022-08-20T06:26:25;17.17;;;5.65;;
11187;SDS011;5650;52.700;7.306;2022-08-20T06:28:52;7.30;;;3.90;;
11187;SDS011;5650;52.700;7.306;2022-08-20T06:31:22;12.98;;;5.20;;
11187;SDS011;5650;52.700;7.306;2022-08-20T06:33:51;14.63;;;5.13;;
11187;SDS011;5650;52.700;7.306;2022-08-20T06:36:20;15.60;;;5.10;;
11187;SDS011;5650;52.700;7.306;2022-08-20T06:38:50;12.82;;;4.60;;
11187;SDS011;5650;52.700;7.306;2022-08-20T06:41:19;12.40;;;5.32;;
11187;SDS011;5650;52.700;7.306;2022-08-20T06:43:46;12.52;;;4.78;;
11187;SDS011;5650;52.700;7.306;2022-08-20T06:46:18;13.65;;;5.20;;
11187;SDS011;5650;52.700;7.306;2022-08-20T06:48:48;9.68;;;4.65;;
11187;SDS011;5650;52.700;7.306;2022-08-20T06:51:16;12.40;;;3.92;;
11187;SDS011;5650;52.700;7.306;2022-08-20T06:53:46;9.40;;;4.13;;
11187;SDS011;5650;52.700;7.306;2022-08-20T06:56:13;14.98;;;4.55;;
11187;SDS011;5650;52.700;7.306;2022-08-20T06:58:41;9.38;;;3.75;;
11187;SDS011;5650;52.700;7.306;2022-08-20T07:01:11;11.55;;;3.70;;
11187;SDS011;5650;52.700;7.306;2022-08-20T07:03:39;11.57;;;3.83;;
11187;SDS011;5650;52.700;7.306;2022-08-20T07:06:07;19.10;;;3.92;;
11187;SDS011;5650;52.700;7.306;2022-08-20T07:08:38;11.65;;;3.60;;
11187;SDS011;5650;52.700;7.306;2022-08-20T07:11:07;15.50;;;3.65;;
11187;SDS011;5650;52.700;7.306;2022-08-20T07:13:36;8.30;;;2.92;;
11187;SDS011;5650;52.700;7.306;2022-08-20T07:16:05;7.60;;;2.97;;
11187;SDS011;5650;52.700;7.306;2022-08-20T07:18:33;10.10;;;2.97;;
11187;SDS011;5650;52.700;7.306;2022-08-20T07:21:00;10.68;;;2.83;;
11187;SDS011;5650;52.700;7.306;2022-08-20T07:23:27;13.45;;;3.30;;
11187;SDS011;5650;52.700;7.306;2022-08-20T07:25:55;9.30;;;2.60;;
11187;SDS011;5650;52.700;7.306;2022-08-20T07:28:25;11.00;;;2.90;;
11187;SDS011;5650;52.700;7.306;2022-08-20T07:30:54;8.52;;;2.53;;
11187;SDS011;5650;52.700;7.306;2022-08-20T07:33:39;5.38;;;2.10;;
11187;SDS011;5650;52.700;7.306;2022-08-20T07:36:07;12.35;;;3.08;;
11187;SDS011;5650;52.700;7.306;2022-08-20T07:38:35;8.32;;;2.30;;
11187;SDS011;5650;52.700;7.306;2022-08-20T07:41:04;9.85;;;2.67;;
11187;SDS011;5650;52.700;7.306;2022-08-20T07:43:33;9.15;;;2.33;;
11187;SDS011;5650;52.700;7.306;2022-08-20T07:46:01;10.13;;;2.50;;
11187;SDS011;5650;52.700;7.306;2022-08-20T07:48:32;13.20;;;2.55;;
11187;SDS011;5650;52.700;7.306;2022-08-20T07:51:02;9.68;;;2.40;;
11187;SDS011;5650;52.700;7.306;2022-08-20T07:53:30;8.60;;;2.67;;
11187;SDS011;5650;52.700;7.306;2022-08-20T07:55:58;9.38;;;2.22;;
11187;SDS011;5650;52.700;7.306;2022-08-20T07:58:26;6.43;;;2.15;;
11187;SDS011;5650;52.700;7.306;2022-08-20T08:00:55;10.35;;;2.28;;
11187;SDS011;5650;52.700;7.306;2022-08-20T08:03:23;7.43;;;2.50;;
11187;SDS011;5650;52.700;7.306;2022-08-20T08:05:51;8.95;;;2.30;;
11187;SDS011;5650;52.700;7.306;2022-08-20T08:08:18;9.93;;;2.40;;
11187;SDS011;5650;52.700;7.306;2022-08-20T08:10:49;7.07;;;2.20;;
11187;SDS011;5650;52.700;7.306;2022-08-20T08:13:19;11.07;;;2.75;;
11187;SDS011;5650;52.700;7.306;2022-08-20T08:15:50;17.15;;;2.72;;
11187;SDS011;5650;52.700;7.306;2022-08-20T08:18:24;7.03;;;2.20;;
11187;SDS011;5650;52.700;7.306;2022-08-20T08:20:56;7.97;;;2.40;;
11187;SDS011;5650;52.700;7.306;2022-08-20T08:23:26;8.85;;;2.42;;
11187;SDS011;5650;52.700;7.306;2022-08-20T08:25:53;16.42;;;2.80;;
11187;SDS011;5650;52.700;7.306;2022-08-20T08:28:21;11.40;;;2.63;;
11187;SDS011;5650;52.700;7.306;2022-08-20T08:30:48;11.07;;;2.33;;
11187;SDS011;5650;52.700;7.306;2022-08-20T08:33:18;7.18;;;2.25;;
11187;SDS011;5650;52.700;7.306;2022-08-20T08:35:58;8.23;;;2.20;;
11187;SDS011;5650;52.700;7.306;2022-08-20T08:38:31;8.52;;;2.30;;
11187;SDS011;5650;52.700;7.306;2022-08-20T08:41:02;12.38;;;2.67;;
11187;SDS011;5650;52.700;7.306;2022-08-20T08:43:36;6.75;;;2.17;;
11187;SDS011;5650;52.700;7.306;2022-08-20T08:46:05;12.25;;;2.78;;
11187;SDS011;5650;52.700;7.306;2022-08-20T08:48:44;8.38;;;2.53;;
11187;SDS011;5650;52.700;7.306;2022-08-20T08:51:15;9.10;;;2.65;;
11187;SDS011;5650;52.700;7.306;2022-08-20T08:53:49;14.95;;;2.72;;
11187;SDS011;5650;52.700;7.306;2022-08-20T08:56:21;14.30;;;2.58;;
11187;SDS011;5650;52.700;7.306;2022-08-20T08:58:50;23.02;;;3.05;;
11187;SDS011;5650;52.700;7.306;2022-08-20T09:01:25;15.30;;;3.08;;
11187;SDS011;5650;52.700;7.306;2022-08-20T09:03:53;9.73;;;2.42;;
11187;SDS011;5650;52.700;7.306;2022-08-20T09:06:24;7.10;;;2.15;;
11187;SDS011;5650;52.700;7.306;2022-08-20T09:08:52;7.28;;;2.10;;
11187;SDS011;5650;52.700;7.306;2022-08-20T09:11:25;11.40;;;2.53;;
11187;SDS011;5650;52.700;7.306;2022-08-20T09:13:52;10.65;;;2.60;;
11187;SDS011;5650;52.700;7.306;2022-08-20T09:16:23;7.38;;;1.90;;
11187;SDS011;5650;52.700;7.306;2022-08-20T09:18:57;12.88;;;2.42;;
11187;SDS011;5650;52.700;7.306;2022-08-20T09:21:25;12.85;;;2.40;;
11187;SDS011;5650;52.700;7.306;2022-08-20T09:23:53;11.27;;;2.60;;
11187;SDS011;5650;52.700;7.306;2022-08-20T09:26:20;8.90;;;1.90;;
11187;SDS011;5650;52.700;7.306;2022-08-20T09:28:47;5.63;;;1.90;;
11187;SDS011;5650;52.700;7.306;2022-08-20T09:31:14;8.82;;;2.13;;
11187;SDS011;5650;52.700;7.306;2022-08-20T09:33:41;12.45;;;2.63;;
11187;SDS011;5650;52.700;7.306;2022-08-20T09:36:08;5.82;;;1.98;;
11187;SDS011;5650;52.700;7.306;2022-08-20T09:38:37;8.43;;;1.85;;
11187;SDS011;5650;52.700;7.306;2022-08-20T09:41:04;8.35;;;1.80;;
11187;SDS011;5650;52.700;7.306;2022-08-20T09:43:31;7.57;;;1.92;;
11187;SDS011;5650;52.700;7.306;2022-08-20T09:45:58;7.55;;;1.90;;
11187;SDS011;5650;52.700;7.306;2022-08-20T09:48:25;7.15;;;1.88;;
11187;SDS011;5650;52.700;7.306;2022-08-20T09:50:53;8.88;;;2.10;;
11187;SDS011;5650;52.700;7.306;2022-08-20T09:53:20;5.57;;;1.73;;
11187;SDS011;5650;52.700;7.306;2022-08-20T09:55:50;6.70;;;1.67;;
11187;SDS011;5650;52.700;7.306;2022-08-20T09:58:20;6.95;;;1.83;;
11187;SDS011;5650;52.700;7.306;2022-08-20T10:00:51;8.35;;;1.92;;
11187;SDS011;5650;52.700;7.306;2022-08-20T10:03:18;7.38;;;1.70;;
11187;SDS011;5650;52.700;7.306;2022-08-20T10:05:45;8.18;;;1.80;;
11187;SDS011;5650;52.700;7.306;2022-08-20T10:08:12;8.70;;;1.77;;
11187;SDS011;5650;52.700;7.306;2022-08-20T10:10:39;5.55;;;2.10;;
11187;SDS011;5650;52.700;7.306;2022-08-20T10:13:08;8.18;;;1.80;;
11187;SDS011;5650;52.700;7.306;2022-08-20T10:15:35;8.32;;;2.10;;
11187;SDS011;5650;52.700;7.306;2022-08-20T10:18:03;6.10;;;1.95;;
11187;SDS011;5650;52.700;7.306;2022-08-20T10:20:32;9.27;;;1.80;;
11187;SDS011;5650;52.700;7.306;2022-08-20T10:23:00;9.05;;;2.25;;
11187;SDS011;5650;52.700;7.306;2022-08-20T10:25:27;6.63;;;1.67;;
11187;SDS011;5650;52.700;7.306;2022-08-20T10:27:55;9.52;;;2.45;;
11187;SDS011;5650;52.700;7.306;2022-08-20T10:30:24;12.57;;;2.25;;
11187;SDS011;5650;52.700;7.306;2022-08-20T10:32:52;7.63;;;2.30;;
11187;SDS011;5650;52.700;7.306;2022-08-20T10:35:19;4.85;;;1.63;;
11187;SDS011;5650;52.700;7.306;2022-08-20T10:37:46;6.65;;;1.63;;
11187;SDS011;5650;52.700;7.306;2022-08-20T10:40:13;8.07;;;2.08;;
11187;SDS011;5650;52.700;7.306;2022-08-20T10:42:40;5.35;;;1.80;;
11187;SDS011;5650;52.700;7.306;2022-08-20T10:45:08;8.85;;;2.28;;
11187;SDS011;5650;52.700;7.306;2022-08-20T10:47:37;9.07;;;2.13;;
11187;SDS011;5650;52.700;7.306;2022-08-20T10:50:06;4.85;;;1.52;;
11187;SDS011;5650;52.700;7.306;2022-08-20T10:52:36;10.48;;;1.83;;
11187;SDS011;5650;52.700;7.306;2022-08-20T10:55:03;5.22;;;1.50;;
11187;SDS011;5650;52.700;7.306;2022-08-20T10:57:31;6.43;;;1.80;;
11187;SDS011;5650;52.700;7.306;2022-08-20T10:59:59;5.93;;;1.95;;
11187;SDS011;5650;52.700;7.306;2022-08-20T11:02:27;5.35;;;2.15;;
11187;SDS011;5650;52.700;7.306;2022-08-20T11:04:55;5.45;;;1.58;;
11187;SDS011;5650;52.700;7.306;2022-08-20T11:07:23;4.50;;;1.40;;
11187;SDS011;5650;52.700;7.306;2022-08-20T11:09:52;4.65;;;1.48;;
11187;SDS011;5650;52.700;7.306;2022-08-20T11:12:20;3.65;;;1.27;;
11187;SDS011;5650;52.700;7.306;2022-08-20T11:14:48;4.80;;;1.48;;
11187;SDS011;5650;52.700;7.306;2022-08-20T11:17:18;9.07;;;1.80;;
11187;SDS011;5650;52.700;7.306;2022-08-20T11:19:46;7.63;;;1.77;;
11187;SDS011;5650;52.700;7.306;2022-08-20T11:22:14;7.80;;;1.80;;
11187;SDS011;5650;52.700;7.306;2022-08-20T11:24:42;4.45;;;1.50;;
11187;SDS011;5650;52.700;7.306;2022-08-20T11:27:09;8.43;;;1.58;;
11187;SDS011;5650;52.700;7.306;2022-08-20T11:29:39;4.82;;;1.92;;
11187;SDS011;5650;52.700;7.306;2022-08-20T11:32:06;5.22;;;1.40;;
11187;SDS011;5650;52.700;7.306;2022-08-20T11:34:33;4.45;;;1.45;;
11187;SDS011;5650;52.700;7.306;2022-08-20T11:37:00;6.57;;;1.83;;
11187;SDS011;5650;52.700;7.306;2022-08-20T11:39:28;5.15;;;1.80;;
11187;SDS011;5650;52.700;7.306;2022-08-20T11:41:56;5.50;;;1.60;;
11187;SDS011;5650;52.700;7.306;2022-08-20T11:44:23;8.50;;;2.13;;
11187;SDS011;5650;52.700;7.306;2022-08-20T11:46:50;6.00;;;1.77;;
11187;SDS011;5650;52.700;7.306;2022-08-20T11:49:17;5.47;;;1.60;;
11187;SDS011;5650;52.700;7.306;2022-08-20T11:51:44;3.90;;;1.50;;
11187;SDS011;5650;52.700;7.306;2022-08-20T11:54:11;5.65;;;1.70;;
11187;SDS011;5650;52.700;7.306;2022-08-20T11:56:40;7.70;;;1.38;;
11187;SDS011;5650;52.700;7.306;2022-08-20T11:59:07;5.82;;;1.70;;
11187;SDS011;5650;52.700;7.306;2022-08-20T12:01:34;10.57;;;1.88;;
11187;SDS011;5650;52.700;7.306;2022-08-20T12:04:01;7.50;;;1.65;;
11187;SDS011;5650;52.700;7.306;2022-08-20T12:06:28;9.27;;;1.77;;
11187;SDS011;5650;52.700;7.306;2022-08-20T12:08:56;5.65;;;1.80;;
11187;SDS011;5650;52.700;7.306;2022-08-20T12:11:23;8.50;;;1.70;;
11187;SDS011;5650;52.700;7.306;2022-08-20T12:13:52;6.10;;;1.73;;
11187;SDS011;5650;52.700;7.306;2022-08-20T12:16:19;6.35;;;1.88;;
11187;SDS011;5650;52.700;7.306;2022-08-20T12:18:47;5.90;;;1.60;;
11187;SDS011;5650;52.700;7.306;2022-08-20T12:21:14;29.92;;;1.83;;
11187;SDS011;5650;52.700;7.306;2022-08-20T12:23:42;7.00;;;2.05;;
11187;SDS011;5650;52.700;7.306;2022-08-20T12:26:09;5.28;;;1.60;;
11187;SDS011;5650;52.700;7.306;2022-08-20T12:28:36;5.00;;;1.75;;
11187;SDS011;5650;52.700;7.306;2022-08-20T12:31:05;12.60;;;2.75;;
11187;SDS011;5650;52.700;7.306;2022-08-20T12:33:32;5.15;;;1.83;;
11187;SDS011;5650;52.700;7.306;2022-08-20T12:35:59;7.75;;;1.85;;
11187;SDS011;5650;52.700;7.306;2022-08-20T12:38:26;5.07;;;1.70;;
11187;SDS011;5650;52.700;7.306;2022-08-20T12:40:53;6.28;;;1.95;;
11187;SDS011;5650;52.700;7.306;2022-08-20T12:43:20;8.43;;;1.52;;
11187;SDS011;5650;52.700;7.306;2022-08-20T12:45:47;3.92;;;1.40;;
11187;SDS011;5650;52.700;7.306;2022-08-20T12:48:16;5.90;;;1.67;;
11187;SDS011;5650;52.700;7.306;2022-08-20T12:50:44;6.68;;;1.77;;
11187;SDS011;5650;52.700;7.306;2022-08-20T12:53:13;7.43;;;1.85;;
11187;SDS011;5650;52.700;7.306;2022-08-20T12:55:41;7.55;;;2.13;;
11187;SDS011;5650;52.700;7.306;2022-08-20T12:58:08;6.20;;;1.88;;
11187;SDS011;5650;52.700;7.306;2022-08-20T13:00:37;4.53;;;1.60;;
11187;SDS011;5650;52.700;7.306;2022-08-20T13:03:08;9.52;;;2.20;;
11187;SDS011;5650;52.700;7.306;2022-08-20T13:05:38;5.82;;;1.92;;
11187;SDS011;5650;52.700;7.306;2022-08-20T13:08:11;7.05;;;1.60;;
11187;SDS011;5650;52.700;7.306;2022-08-20T13:10:42;5.60;;;1.90;;
11187;SDS011;5650;52.700;7.306;2022-08-20T13:13:10;5.43;;;1.50;;
11187;SDS011;5650;52.700;7.306;2022-08-20T13:15:37;5.93;;;1.70;;
11187;SDS011;5650;52.700;7.306;2022-08-20T13:18:04;6.75;;;2.00;;
11187;SDS011;5650;52.700;7.306;2022-08-20T13:20:35;7.80;;;1.85;;
11187;SDS011;5650;52.700;7.306;2022-08-20T13:23:04;3.83;;;1.30;;
11187;SDS011;5650;52.700;7.306;2022-08-20T13:25:31;10.20;;;1.77;;
11187;SDS011;5650;52.700;7.306;2022-08-20T13:27:59;7.28;;;2.03;;
11187;SDS011;5650;52.700;7.306;2022-08-20T13:30:27;6.10;;;1.52;;
11187;SDS011;5650;52.700;7.306;2022-08-20T13:32:55;7.68;;;1.90;;
11187;SDS011;5650;52.700;7.306;2022-08-20T13:35:22;7.63;;;2.47;;
11187;SDS011;5650;52.700;7.306;2022-08-20T13:37:52;7.63;;;1.98;;
11187;SDS011;5650;52.700;7.306;2022-08-20T13:40:20;8.77;;;1.65;;
11187;SDS011;5650;52.700;7.306;2022-08-20T13:42:48;5.40;;;1.60;;
11187;SDS011;5650;52.700;7.306;2022-08-20T13:45:15;8.35;;;1.88;;
11187;SDS011;5650;52.700;7.306;2022-08-20T13:47:42;7.60;;;1.60;;
11187;SDS011;5650;52.700;7.306;2022-08-20T13:50:13;4.70;;;1.60;;
11187;SDS011;5650;52.700;7.306;2022-08-20T13:52:43;4.85;;;1.67;;
11187;SDS011;5650;52.700;7.306;2022-08-20T13:55:11;7.22;;;1.83;;
11187;SDS011;5650;52.700;7.306;2022-08-20T13:57:41;6.72;;;1.60;;
11187;SDS011;5650;52.700;7.306;2022-08-20T14:00:10;8.73;;;1.70;;
11187;SDS011;5650;52.700;7.306;2022-08-20T14:02:41;5.03;;;1.63;;
11187;SDS011;5650;52.700;7.306;2022-08-20T14:05:08;7.10;;;1.83;;
11187;SDS011;5650;52.700;7.306;2022-08-20T14:07:36;6.60;;;2.10;;
11187;SDS011;5650;52.700;7.306;2022-08-20T14:10:08;6.60;;;1.83;;
11187;SDS011;5650;52.700;7.306;2022-08-20T14:12:36;5.57;;;1.63;;
11187;SDS011;5650;52.700;7.306;2022-08-20T14:15:06;4.47;;;1.50;;
11187;SDS011;5650;52.700;7.306;2022-08-20T14:17:35;6.80;;;2.03;;
11187;SDS011;5650;52.700;7.306;2022-08-20T14:20:04;6.07;;;1.83;;
11187;SDS011;5650;52.700;7.306;2022-08-20T14:22:34;7.55;;;1.67;;
11187;SDS011;5650;52.700;7.306;2022-08-20T14:25:02;8.25;;;1.98;;
11187;SDS011;5650;52.700;7.306;2022-08-20T14:27:37;4.85;;;1.48;;
11187;SDS011;5650;52.700;7.306;2022-08-20T14:30:08;4.60;;;1.42;;
11187;SDS011;5650;52.700;7.306;2022-08-20T14:32:37;12.77;;;1.73;;
11187;SDS011;5650;52.700;7.306;2022-08-20T14:35:05;7.47;;;1.63;;
11187;SDS011;5650;52.700;7.306;2022-08-20T14:37:34;3.67;;;1.30;;
11187;SDS011;5650;52.700;7.306;2022-08-20T14:40:04;5.63;;;1.55;;
11187;SDS011;5650;52.700;7.306;2022-08-20T14:42:33;9.05;;;1.90;;
11187;SDS011;5650;52.700;7.306;2022-08-20T14:45:00;7.53;;;1.63;;
11187;SDS011;5650;52.700;7.306;2022-08-20T14:47:33;4.40;;;1.45;;
11187;SDS011;5650;52.700;7.306;2022-08-20T14:50:06;4.45;;;1.40;;
11187;SDS011;5650;52.700;7.306;2022-08-20T14:52:38;6.70;;;1.70;;
11187;SDS011;5650;52.700;7.306;2022-08-20T14:55:09;7.30;;;1.88;;
11187;SDS011;5650;52.700;7.306;2022-08-20T14:57:38;5.40;;;1.60;;
11187;SDS011;5650;52.700;7.306;2022-08-20T15:00:06;5.80;;;1.40;;
11187;SDS011;5650;52.700;7.306;2022-08-20T15:02:40;3.95;;;1.60;;
11187;SDS011;5650;52.700;7.306;2022-08-20T15:05:07;6.75;;;1.77;;